sensor_id;sensor_type;location;lat;lon;timestamp;temperature;humidity
3194;DHT22;1608;50.860;13.466;2022-12-01T00:01:47;3.60;99.90
3194;DHT22;1608;50.860;13.466;2022-12-01T00:04:14;3.60;99.90
3194;DHT22;1608;50.860;13.466;2022-12-01T00:06:41;3.60;99.90
3194;DHT22;1608;50.860;13.466;2022-12-01T00:09:08;3.60;99.90
3194;DHT22;1608;50.860;13.466;2022-12-01T00:11:53;3.60;99.90
3194;DHT22;1608;50.860;13.466;2022-12-01T00:14:20;3.60;99.90
3194;DHT22;1608;50.860;13.466;2022-12-01T00:16:47;3.70;99.90
3194;DHT22;1608;50.860;13.466;2022-12-01T00:19:14;3.70;99.90
3194;DHT22;1608;50.860;13.466;2022-12-01T00:21:42;3.70;99.90
3194;DHT22;1608;50.860;13.466;2022-12-01T00:24:10;3.70;99.90
3194;DHT22;1608;50.860;13.466;2022-12-01T00:26:37;3.80;99.90
3194;DHT22;1608;50.860;13.466;2022-12-01T00:29:05;3.80;99.90
3194;DHT22;1608;50.860;13.466;2022-12-01T00:31:33;3.90;99.90
3194;DHT22;1608;50.860;13.466;2022-12-01T00:34:00;3.90;99.90
3194;DHT22;1608;50.860;13.466;2022-12-01T00:36:27;4.00;99.90
3194;DHT22;1608;50.860;13.466;2022-12-01T00:38:55;4.10;99.90
3194;DHT22;1608;50.860;13.466;2022-12-01T00:41:24;4.10;99.90
3194;DHT22;1608;50.860;13.466;2022-12-01T00:43:51;4.10;99.90
3194;DHT22;1608;50.860;13.466;2022-12-01T00:46:19;4.20;99.90
3194;DHT22;1608;50.860;13.466;2022-12-01T00:48:46;4.10;99.90
3194;DHT22;1608;50.860;13.466;2022-12-01T00:51:12;4.20;99.90
3194;DHT22;1608;50.860;13.466;2022-12-01T00:53:39;4.20;99.90
3194;DHT22;1608;50.860;13.466;2022-12-01T00:56:06;4.20;99.90
3194;DHT22;1608;50.860;13.466;2022-12-01T00:58:33;4.20;99.90
3194;DHT22;1608;50.860;13.466;2022-12-01T01:01:00;4.20;99.90
3194;DHT22;1608;50.860;13.466;2022-12-01T01:03:30;4.20;99.90
3194;DHT22;1608;50.860;13.466;2022-12-01T01:06:03;4.20;99.90
3194;DHT22;1608;50.860;13.466;2022-12-01T01:08:31;4.20;99.90
3194;DHT22;1608;50.860;13.466;2022-12-01T01:10:59;4.20;99.90
3194;DHT22;1608;50.860;13.466;2022-12-01T01:13:26;4.20;99.90
3194;DHT22;1608;50.860;13.466;2022-12-01T01:15:57;4.20;99.90
3194;DHT22;1608;50.860;13.466;2022-12-01T01:18:24;3.90;99.90
3194;DHT22;1608;50.860;13.466;2022-12-01T01:20:56;3.60;99.90
3194;DHT22;1608;50.860;13.466;2022-12-01T01:23:23;3.50;99.90
3194;DHT22;1608;50.860;13.466;2022-12-01T01:25:49;3.30;99.90
3194;DHT22;1608;50.860;13.466;2022-12-01T01:28:16;3.30;99.90
3194;DHT22;1608;50.860;13.466;2022-12-01T01:30:44;3.30;99.90
3194;DHT22;1608;50.860;13.466;2022-12-01T01:33:11;3.40;99.90
3194;DHT22;1608;50.860;13.466;2022-12-01T01:35:38;3.40;99.90
3194;DHT22;1608;50.860;13.466;2022-12-01T01:38:06;3.40;99.90
3194;DHT22;1608;50.860;13.466;2022-12-01T01:40:33;3.40;99.90
3194;DHT22;1608;50.860;13.466;2022-12-01T01:43:00;3.40;99.90
3194;DHT22;1608;50.860;13.466;2022-12-01T01:45:28;3.40;99.90
3194;DHT22;1608;50.860;13.466;2022-12-01T01:47:57;3.50;99.90
3194;DHT22;1608;50.860;13.466;2022-12-01T01:50:26;3.40;99.90
3194;DHT22;1608;50.860;13.466;2022-12-01T01:52:59;3.40;99.90
3194;DHT22;1608;50.860;13.466;2022-12-01T01:55:29;3.40;99.90
3194;DHT22;1608;50.860;13.466;2022-12-01T01:57:57;3.40;99.90
3194;DHT22;1608;50.860;13.466;2022-12-01T02:00:24;3.30;99.90
3194;DHT22;1608;50.860;13.466;2022-12-01T02:02:52;3.20;99.90
3194;DHT22;1608;50.860;13.466;2022-12-01T02:05:22;3.20;99.90
3194;DHT22;1608;50.860;13.466;2022-12-01T02:07:50;3.00;99.90
3194;DHT22;1608;50.860;13.466;2022-12-01T02:10:18;3.00;99.90
3194;DHT22;1608;50.860;13.466;2022-12-01T02:13:07;3.00;99.90
3194;DHT22;1608;50.860;13.466;2022-12-01T02:15:39;3.00;99.90
3194;DHT22;1608;50.860;13.466;2022-12-01T02:18:20;3.20;99.90
3194;DHT22;1608;50.860;13.466;2022-12-01T02:21:24;3.30;99.90
3194;DHT22;1608;50.860;13.466;2022-12-01T02:24:14;3.40;99.90
3194;DHT22;1608;50.860;13.466;2022-12-01T02:26:48;4.40;99.90
3194;DHT22;1608;50.860;13.466;2022-12-01T02:29:47;3.50;99.90
3194;DHT22;1608;50.860;13.466;2022-12-01T02:32:24;3.50;99.90
3194;DHT22;1608;50.860;13.466;2022-12-01T02:34:56;3.60;99.90
3194;DHT22;1608;50.860;13.466;2022-12-01T02:37:30;3.70;99.90
3194;DHT22;1608;50.860;13.466;2022-12-01T02:40:05;3.70;99.90
3194;DHT22;1608;50.860;13.466;2022-12-01T02:42:40;3.70;99.90
3194;DHT22;1608;50.860;13.466;2022-12-01T02:45:22;3.50;99.90
3194;DHT22;1608;50.860;13.466;2022-12-01T02:47:56;3.50;99.90
3194;DHT22;1608;50.860;13.466;2022-12-01T02:50:26;3.50;99.90
3194;DHT22;1608;50.860;13.466;2022-12-01T02:52:54;3.40;99.90
3194;DHT22;1608;50.860;13.466;2022-12-01T02:55:21;3.40;99.90
3194;DHT22;1608;50.860;13.466;2022-12-01T02:57:48;3.40;99.90
3194;DHT22;1608;50.860;13.466;2022-12-01T03:00:15;3.50;99.90
3194;DHT22;1608;50.860;13.466;2022-12-01T03:02:50;3.40;99.90
3194;DHT22;1608;50.860;13.466;2022-12-01T03:05:26;3.30;99.90
3194;DHT22;1608;50.860;13.466;2022-12-01T03:08:00;3.30;99.90
3194;DHT22;1608;50.860;13.466;2022-12-01T03:10:36;3.20;99.90
3194;DHT22;1608;50.860;13.466;2022-12-01T03:13:17;3.20;99.90
3194;DHT22;1608;50.860;13.466;2022-12-01T03:15:50;3.20;99.90
3194;DHT22;1608;50.860;13.466;2022-12-01T03:18:26;3.10;99.90
3194;DHT22;1608;50.860;13.466;2022-12-01T03:20:58;3.20;99.90
3194;DHT22;1608;50.860;13.466;2022-12-01T03:23:30;3.30;99.90
3194;DHT22;1608;50.860;13.466;2022-12-01T03:26:00;3.30;99.90
3194;DHT22;1608;50.860;13.466;2022-12-01T03:28:35;3.20;99.90
3194;DHT22;1608;50.860;13.466;2022-12-01T03:31:06;3.20;99.90
3194;DHT22;1608;50.860;13.466;2022-12-01T03:33:37;3.10;99.90
3194;DHT22;1608;50.860;13.466;2022-12-01T03:36:09;3.10;99.90
3194;DHT22;1608;50.860;13.466;2022-12-01T03:38:41;3.10;99.90
3194;DHT22;1608;50.860;13.466;2022-12-01T03:41:15;3.20;99.90
3194;DHT22;1608;50.860;13.466;2022-12-01T03:43:48;3.30;99.90
3194;DHT22;1608;50.860;13.466;2022-12-01T03:46:20;3.40;99.90
3194;DHT22;1608;50.860;13.466;2022-12-01T03:48:50;3.50;99.90
3194;DHT22;1608;50.860;13.466;2022-12-01T03:51:25;3.60;99.90
3194;DHT22;1608;50.860;13.466;2022-12-01T03:53:56;3.60;99.90
3194;DHT22;1608;50.860;13.466;2022-12-01T03:56:30;3.60;99.90
3194;DHT22;1608;50.860;13.466;2022-12-01T03:58:59;3.70;99.90
3194;DHT22;1608;50.860;13.466;2022-12-01T04:01:29;3.70;99.90
3194;DHT22;1608;50.860;13.466;2022-12-01T04:04:05;3.70;99.90
3194;DHT22;1608;50.860;13.466;2022-12-01T04:06:34;3.70;99.90
3194;DHT22;1608;50.860;13.466;2022-12-01T04:09:01;3.70;99.90
3194;DHT22;1608;50.860;13.466;2022-12-01T04:11:28;3.60;99.90
3194;DHT22;1608;50.860;13.466;2022-12-01T04:14:13;3.50;99.90
3194;DHT22;1608;50.860;13.466;2022-12-01T04:16:40;3.60;99.90
3194;DHT22;1608;50.860;13.466;2022-12-01T04:19:07;3.80;99.90
3194;DHT22;1608;50.860;13.466;2022-12-01T04:21:35;3.70;99.90
3194;DHT22;1608;50.860;13.466;2022-12-01T04:24:02;3.70;99.90
3194;DHT22;1608;50.860;13.466;2022-12-01T04:26:30;3.60;99.90
3194;DHT22;1608;50.860;13.466;2022-12-01T04:28:57;3.60;99.90
3194;DHT22;1608;50.860;13.466;2022-12-01T04:31:24;3.70;99.90
3194;DHT22;1608;50.860;13.466;2022-12-01T04:33:53;3.60;99.90
3194;DHT22;1608;50.860;13.466;2022-12-01T04:36:20;3.50;99.90
3194;DHT22;1608;50.860;13.466;2022-12-01T04:38:48;3.40;99.90
3194;DHT22;1608;50.860;13.466;2022-12-01T04:41:15;3.30;99.90
3194;DHT22;1608;50.860;13.466;2022-12-01T04:43:42;3.20;99.90
3194;DHT22;1608;50.860;13.466;2022-12-01T04:46:09;3.20;99.90
3194;DHT22;1608;50.860;13.466;2022-12-01T04:48:37;3.30;99.90
3194;DHT22;1608;50.860;13.466;2022-12-01T04:51:05;3.40;99.90
3194;DHT22;1608;50.860;13.466;2022-12-01T04:53:33;3.40;99.90
3194;DHT22;1608;50.860;13.466;2022-12-01T04:56:02;3.30;99.90
3194;DHT22;1608;50.860;13.466;2022-12-01T04:58:30;3.20;99.90
3194;DHT22;1608;50.860;13.466;2022-12-01T05:01:00;3.10;99.90
3194;DHT22;1608;50.860;13.466;2022-12-01T05:03:28;2.90;99.90
3194;DHT22;1608;50.860;13.466;2022-12-01T05:06:00;2.90;99.90
3194;DHT22;1608;50.860;13.466;2022-12-01T05:08:28;2.80;99.90
3194;DHT22;1608;50.860;13.466;2022-12-01T05:10:54;2.80;99.90
3194;DHT22;1608;50.860;13.466;2022-12-01T05:13:23;2.80;99.90
3194;DHT22;1608;50.860;13.466;2022-12-01T05:15:49;2.90;99.90
3194;DHT22;1608;50.860;13.466;2022-12-01T05:18:16;2.60;99.90
3194;DHT22;1608;50.860;13.466;2022-12-01T05:20:43;2.70;99.90
3194;DHT22;1608;50.860;13.466;2022-12-01T05:23:24;2.70;99.90
3194;DHT22;1608;50.860;13.466;2022-12-01T05:25:52;2.50;99.90
3194;DHT22;1608;50.860;13.466;2022-12-01T05:28:20;2.40;99.90
3194;DHT22;1608;50.860;13.466;2022-12-01T05:30:48;2.40;99.90
3194;DHT22;1608;50.860;13.466;2022-12-01T05:33:15;2.40;99.90
3194;DHT22;1608;50.860;13.466;2022-12-01T05:35:42;2.50;99.90
3194;DHT22;1608;50.860;13.466;2022-12-01T05:38:09;2.70;99.90
3194;DHT22;1608;50.860;13.466;2022-12-01T05:40:37;2.70;99.90
3194;DHT22;1608;50.860;13.466;2022-12-01T05:43:04;2.80;99.90
3194;DHT22;1608;50.860;13.466;2022-12-01T05:45:32;2.80;99.90
3194;DHT22;1608;50.860;13.466;2022-12-01T05:48:01;2.80;99.90
3194;DHT22;1608;50.860;13.466;2022-12-01T05:50:29;2.80;99.90
3194;DHT22;1608;50.860;13.466;2022-12-01T05:52:56;2.80;99.90
3194;DHT22;1608;50.860;13.466;2022-12-01T05:55:23;2.80;99.90
3194;DHT22;1608;50.860;13.466;2022-12-01T05:57:49;2.80;99.90
3194;DHT22;1608;50.860;13.466;2022-12-01T06:00:17;2.80;99.90
3194;DHT22;1608;50.860;13.466;2022-12-01T06:02:44;2.60;99.90
3194;DHT22;1608;50.860;13.466;2022-12-01T06:05:12;2.50;99.90
3194;DHT22;1608;50.860;13.466;2022-12-01T06:07:39;2.50;99.90
3194;DHT22;1608;50.860;13.466;2022-12-01T06:10:06;2.50;99.90
3194;DHT22;1608;50.860;13.466;2022-12-01T06:12:34;2.60;99.90
3194;DHT22;1608;50.860;13.466;2022-12-01T06:15:01;2.70;99.90
3194;DHT22;1608;50.860;13.466;2022-12-01T06:17:28;2.70;99.90
3194;DHT22;1608;50.860;13.466;2022-12-01T06:19:55;2.80;99.90
3194;DHT22;1608;50.860;13.466;2022-12-01T06:22:23;3.00;99.90
3194;DHT22;1608;50.860;13.466;2022-12-01T06:24:50;3.10;99.90
3194;DHT22;1608;50.860;13.466;2022-12-01T06:27:17;3.10;99.90
3194;DHT22;1608;50.860;13.466;2022-12-01T06:29:44;3.00;99.90
3194;DHT22;1608;50.860;13.466;2022-12-01T06:32:10;2.90;99.90
3194;DHT22;1608;50.860;13.466;2022-12-01T06:34:37;2.80;99.90
3194;DHT22;1608;50.860;13.466;2022-12-01T06:37:04;2.80;99.90
3194;DHT22;1608;50.860;13.466;2022-12-01T06:39:32;2.70;99.90
3194;DHT22;1608;50.860;13.466;2022-12-01T06:41:59;2.70;99.90
3194;DHT22;1608;50.860;13.466;2022-12-01T06:44:25;2.70;99.90
3194;DHT22;1608;50.860;13.466;2022-12-01T06:46:52;2.70;99.90
3194;DHT22;1608;50.860;13.466;2022-12-01T06:49:19;2.70;99.90
3194;DHT22;1608;50.860;13.466;2022-12-01T06:51:46;2.80;99.90
3194;DHT22;1608;50.860;13.466;2022-12-01T06:54:13;2.80;99.90
3194;DHT22;1608;50.860;13.466;2022-12-01T06:56:42;2.80;99.90
3194;DHT22;1608;50.860;13.466;2022-12-01T06:59:10;2.60;99.90
3194;DHT22;1608;50.860;13.466;2022-12-01T07:01:37;2.50;99.90
3194;DHT22;1608;50.860;13.466;2022-12-01T07:04:04;2.40;99.90
3194;DHT22;1608;50.860;13.466;2022-12-01T07:06:31;2.40;99.90
3194;DHT22;1608;50.860;13.466;2022-12-01T07:08:58;2.40;99.90
3194;DHT22;1608;50.860;13.466;2022-12-01T07:11:25;2.40;99.90
3194;DHT22;1608;50.860;13.466;2022-12-01T07:13:55;2.30;99.90
3194;DHT22;1608;50.860;13.466;2022-12-01T07:16:21;2.30;99.90
3194;DHT22;1608;50.860;13.466;2022-12-01T07:18:48;2.30;99.90
3194;DHT22;1608;50.860;13.466;2022-12-01T07:21:17;2.40;99.90
3194;DHT22;1608;50.860;13.466;2022-12-01T07:23:43;2.40;99.90
3194;DHT22;1608;50.860;13.466;2022-12-01T07:26:12;2.30;99.90
3194;DHT22;1608;50.860;13.466;2022-12-01T07:28:39;2.40;99.90
3194;DHT22;1608;50.860;13.466;2022-12-01T07:31:11;2.40;99.90
3194;DHT22;1608;50.860;13.466;2022-12-01T07:33:38;2.50;99.90
3194;DHT22;1608;50.860;13.466;2022-12-01T07:36:06;2.60;99.90
3194;DHT22;1608;50.860;13.466;2022-12-01T07:38:34;2.70;99.90
3194;DHT22;1608;50.860;13.466;2022-12-01T07:41:02;2.80;99.90
3194;DHT22;1608;50.860;13.466;2022-12-01T07:43:30;2.90;99.90
3194;DHT22;1608;50.860;13.466;2022-12-01T07:46:02;3.00;99.90
3194;DHT22;1608;50.860;13.466;2022-12-01T07:48:31;3.00;99.90
3194;DHT22;1608;50.860;13.466;2022-12-01T07:50:57;3.00;99.90
3194;DHT22;1608;50.860;13.466;2022-12-01T07:53:24;3.20;99.90
3194;DHT22;1608;50.860;13.466;2022-12-01T07:55:51;3.20;99.90
3194;DHT22;1608;50.860;13.466;2022-12-01T07:58:18;2.90;99.90
3194;DHT22;1608;50.860;13.466;2022-12-01T08:00:45;2.90;99.90
3194;DHT22;1608;50.860;13.466;2022-12-01T08:03:12;2.90;99.90
3194;DHT22;1608;50.860;13.466;2022-12-01T08:05:40;3.00;99.90
3194;DHT22;1608;50.860;13.466;2022-12-01T08:08:07;3.00;99.90
3194;DHT22;1608;50.860;13.466;2022-12-01T08:10:34;3.00;99.90
3194;DHT22;1608;50.860;13.466;2022-12-01T08:13:01;3.20;99.90
3194;DHT22;1608;50.860;13.466;2022-12-01T08:15:28;3.10;99.90
3194;DHT22;1608;50.860;13.466;2022-12-01T08:17:58;3.20;99.90
3194;DHT22;1608;50.860;13.466;2022-12-01T08:20:25;3.00;99.90
3194;DHT22;1608;50.860;13.466;2022-12-01T08:22:53;3.00;99.90
3194;DHT22;1608;50.860;13.466;2022-12-01T08:25:20;2.90;99.90
3194;DHT22;1608;50.860;13.466;2022-12-01T08:27:47;2.90;99.90
3194;DHT22;1608;50.860;13.466;2022-12-01T08:30:14;2.90;99.90
3194;DHT22;1608;50.860;13.466;2022-12-01T08:32:41;2.90;99.90
3194;DHT22;1608;50.860;13.466;2022-12-01T08:35:08;2.90;99.90
3194;DHT22;1608;50.860;13.466;2022-12-01T08:37:35;2.80;99.90
3194;DHT22;1608;50.860;13.466;2022-12-01T08:40:04;2.90;99.90
3194;DHT22;1608;50.860;13.466;2022-12-01T08:42:31;2.70;99.90
3194;DHT22;1608;50.860;13.466;2022-12-01T08:44:58;2.60;99.90
3194;DHT22;1608;50.860;13.466;2022-12-01T08:47:26;2.60;99.90
3194;DHT22;1608;50.860;13.466;2022-12-01T08:49:54;2.90;99.90
3194;DHT22;1608;50.860;13.466;2022-12-01T08:52:21;2.90;99.90
3194;DHT22;1608;50.860;13.466;2022-12-01T08:54:47;3.00;99.90
3194;DHT22;1608;50.860;13.466;2022-12-01T08:57:16;3.10;99.90
3194;DHT22;1608;50.860;13.466;2022-12-01T08:59:43;3.20;99.90
3194;DHT22;1608;50.860;13.466;2022-12-01T09:02:13;3.40;99.90
3194;DHT22;1608;50.860;13.466;2022-12-01T09:04:39;3.40;99.90
3194;DHT22;1608;50.860;13.466;2022-12-01T09:07:09;3.30;99.90
3194;DHT22;1608;50.860;13.466;2022-12-01T09:09:39;3.30;99.90
3194;DHT22;1608;50.860;13.466;2022-12-01T09:12:06;3.20;99.90
3194;DHT22;1608;50.860;13.466;2022-12-01T09:14:37;3.20;99.90
3194;DHT22;1608;50.860;13.466;2022-12-01T09:17:04;3.20;99.90
3194;DHT22;1608;50.860;13.466;2022-12-01T09:19:31;3.10;99.90
3194;DHT22;1608;50.860;13.466;2022-12-01T09:21:59;3.10;99.90
3194;DHT22;1608;50.860;13.466;2022-12-01T09:24:25;3.10;99.90
3194;DHT22;1608;50.860;13.466;2022-12-01T09:26:54;3.10;99.90
3194;DHT22;1608;50.860;13.466;2022-12-01T09:29:21;3.10;99.90
3194;DHT22;1608;50.860;13.466;2022-12-01T09:31:49;3.00;99.90
3194;DHT22;1608;50.860;13.466;2022-12-01T09:34:17;3.10;99.90
3194;DHT22;1608;50.860;13.466;2022-12-01T09:36:45;3.10;99.90
3194;DHT22;1608;50.860;13.466;2022-12-01T09:39:15;3.10;99.90
3194;DHT22;1608;50.860;13.466;2022-12-01T09:41:45;3.20;99.90
3194;DHT22;1608;50.860;13.466;2022-12-01T09:44:16;3.30;99.90
3194;DHT22;1608;50.860;13.466;2022-12-01T09:46:51;3.40;99.90
3194;DHT22;1608;50.860;13.466;2022-12-01T09:49:21;3.50;99.90
3194;DHT22;1608;50.860;13.466;2022-12-01T09:51:50;3.50;99.90
3194;DHT22;1608;50.860;13.466;2022-12-01T09:54:18;3.50;99.90
3194;DHT22;1608;50.860;13.466;2022-12-01T09:56:46;3.50;99.90
3194;DHT22;1608;50.860;13.466;2022-12-01T09:59:18;3.40;99.90
3194;DHT22;1608;50.860;13.466;2022-12-01T10:01:50;3.30;99.90
3194;DHT22;1608;50.860;13.466;2022-12-01T10:04:22;3.10;99.90
3194;DHT22;1608;50.860;13.466;2022-12-01T10:06:55;3.00;99.90
3194;DHT22;1608;50.860;13.466;2022-12-01T10:09:28;3.10;99.90
3194;DHT22;1608;50.860;13.466;2022-12-01T10:12:04;3.00;99.90
3194;DHT22;1608;50.860;13.466;2022-12-01T10:14:33;3.10;99.90
3194;DHT22;1608;50.860;13.466;2022-12-01T10:17:10;3.10;99.90
3194;DHT22;1608;50.860;13.466;2022-12-01T10:19:43;3.20;99.90
3194;DHT22;1608;50.860;13.466;2022-12-01T10:25:15;3.50;99.90
3194;DHT22;1608;50.860;13.466;2022-12-01T10:27:49;3.50;99.90
3194;DHT22;1608;50.860;13.466;2022-12-01T10:30:20;3.40;99.90
3194;DHT22;1608;50.860;13.466;2022-12-01T10:32:51;3.30;99.90
3194;DHT22;1608;50.860;13.466;2022-12-01T10:35:21;3.20;99.90
3194;DHT22;1608;50.860;13.466;2022-12-01T10:37:53;3.10;99.90
3194;DHT22;1608;50.860;13.466;2022-12-01T10:40:21;3.10;99.90
3194;DHT22;1608;50.860;13.466;2022-12-01T10:42:49;3.20;99.90
3194;DHT22;1608;50.860;13.466;2022-12-01T10:45:20;3.20;99.90
3194;DHT22;1608;50.860;13.466;2022-12-01T10:48:11;3.30;99.90
3194;DHT22;1608;50.860;13.466;2022-12-01T10:50:40;3.50;99.90
3194;DHT22;1608;50.860;13.466;2022-12-01T10:53:25;3.70;99.90
3194;DHT22;1608;50.860;13.466;2022-12-01T10:55:59;3.70;99.90
3194;DHT22;1608;50.860;13.466;2022-12-01T10:58:29;3.60;99.90
3194;DHT22;1608;50.860;13.466;2022-12-01T11:00:59;3.70;99.90
3194;DHT22;1608;50.860;13.466;2022-12-01T11:03:30;3.50;99.90
3194;DHT22;1608;50.860;13.466;2022-12-01T11:06:00;3.40;99.90
3194;DHT22;1608;50.860;13.466;2022-12-01T11:08:32;3.20;99.90
3194;DHT22;1608;50.860;13.466;2022-12-01T11:11:02;3.30;99.90
3194;DHT22;1608;50.860;13.466;2022-12-01T11:13:30;3.40;99.90
3194;DHT22;1608;50.860;13.466;2022-12-01T11:15:59;3.40;99.90
3194;DHT22;1608;50.860;13.466;2022-12-01T11:18:31;3.50;99.90
3194;DHT22;1608;50.860;13.466;2022-12-01T11:21:08;3.50;99.90
3194;DHT22;1608;50.860;13.466;2022-12-01T11:23:36;3.50;99.90
3194;DHT22;1608;50.860;13.466;2022-12-01T11:26:10;3.50;99.90
3194;DHT22;1608;50.860;13.466;2022-12-01T11:28:42;3.60;99.90
3194;DHT22;1608;50.860;13.466;2022-12-01T11:31:15;3.60;99.90
3194;DHT22;1608;50.860;13.466;2022-12-01T11:33:47;3.50;99.90
3194;DHT22;1608;50.860;13.466;2022-12-01T11:36:26;3.60;99.90
3194;DHT22;1608;50.860;13.466;2022-12-01T11:38:56;3.70;99.90
3194;DHT22;1608;50.860;13.466;2022-12-01T11:41:33;3.60;99.90
3194;DHT22;1608;50.860;13.466;2022-12-01T11:44:03;3.60;99.90
3194;DHT22;1608;50.860;13.466;2022-12-01T11:46:33;3.90;99.90
3194;DHT22;1608;50.860;13.466;2022-12-01T11:49:02;3.90;99.90
3194;DHT22;1608;50.860;13.466;2022-12-01T11:51:31;4.00;99.90
3194;DHT22;1608;50.860;13.466;2022-12-01T11:54:16;3.90;99.90
3194;DHT22;1608;50.860;13.466;2022-12-01T11:56:44;3.80;99.90
3194;DHT22;1608;50.860;13.466;2022-12-01T11:59:14;3.60;99.90
3194;DHT22;1608;50.860;13.466;2022-12-01T12:01:54;3.40;99.90
3194;DHT22;1608;50.860;13.466;2022-12-01T12:04:37;3.40;99.90
3194;DHT22;1608;50.860;13.466;2022-12-01T12:07:12;3.60;99.90
3194;DHT22;1608;50.860;13.466;2022-12-01T12:10:08;3.70;99.90
3194;DHT22;1608;50.860;13.466;2022-12-01T12:12:51;3.80;99.90
3194;DHT22;1608;50.860;13.466;2022-12-01T12:15:26;3.70;99.90
3194;DHT22;1608;50.860;13.466;2022-12-01T12:18:06;3.70;99.90
3194;DHT22;1608;50.860;13.466;2022-12-01T12:20:44;3.50;99.90
3194;DHT22;1608;50.860;13.466;2022-12-01T12:23:24;3.50;99.90
3194;DHT22;1608;50.860;13.466;2022-12-01T12:26:02;3.60;99.90
3194;DHT22;1608;50.860;13.466;2022-12-01T12:28:41;3.70;99.90
3194;DHT22;1608;50.860;13.466;2022-12-01T12:31:19;3.80;99.90
3194;DHT22;1608;50.860;13.466;2022-12-01T12:34:18;3.80;99.90
3194;DHT22;1608;50.860;13.466;2022-12-01T12:36:56;3.80;99.90
3194;DHT22;1608;50.860;13.466;2022-12-01T12:39:48;3.80;99.90
3194;DHT22;1608;50.860;13.466;2022-12-01T12:42:24;3.80;99.90
3194;DHT22;1608;50.860;13.466;2022-12-01T12:45:01;3.70;99.90
3194;DHT22;1608;50.860;13.466;2022-12-01T12:47:44;3.70;99.90
3194;DHT22;1608;50.860;13.466;2022-12-01T12:50:22;3.80;99.90
3194;DHT22;1608;50.860;13.466;2022-12-01T12:52:55;3.70;99.90
3194;DHT22;1608;50.860;13.466;2022-12-01T12:55:26;3.90;99.90
3194;DHT22;1608;50.860;13.466;2022-12-01T12:57:56;3.90;99.90
3194;DHT22;1608;50.860;13.466;2022-12-01T13:00:24;3.90;99.90
3194;DHT22;1608;50.860;13.466;2022-12-01T13:02:55;3.90;99.90
3194;DHT22;1608;50.860;13.466;2022-12-01T13:05:26;3.80;99.90
3194;DHT22;1608;50.860;13.466;2022-12-01T13:08:00;3.90;99.90
3194;DHT22;1608;50.860;13.466;2022-12-01T13:10:33;4.00;99.90
3194;DHT22;1608;50.860;13.466;2022-12-01T13:13:10;3.90;99.90
3194;DHT22;1608;50.860;13.466;2022-12-01T13:15:39;3.80;99.90
3194;DHT22;1608;50.860;13.466;2022-12-01T13:18:11;3.70;99.90
3194;DHT22;1608;50.860;13.466;2022-12-01T13:20:42;3.70;99.90
3194;DHT22;1608;50.860;13.466;2022-12-01T13:23:14;3.70;99.90
3194;DHT22;1608;50.860;13.466;2022-12-01T13:25:43;3.80;99.90
3194;DHT22;1608;50.860;13.466;2022-12-01T13:28:16;3.80;99.90
3194;DHT22;1608;50.860;13.466;2022-12-01T13:30:57;3.80;99.90
3194;DHT22;1608;50.860;13.466;2022-12-01T13:33:24;3.80;99.90
3194;DHT22;1608;50.860;13.466;2022-12-01T13:35:52;3.80;99.90
3194;DHT22;1608;50.860;13.466;2022-12-01T13:38:25;3.70;99.90
3194;DHT22;1608;50.860;13.466;2022-12-01T13:41:23;3.70;99.90
3194;DHT22;1608;50.860;13.466;2022-12-01T13:43:56;3.60;99.90
3194;DHT22;1608;50.860;13.466;2022-12-01T13:46:25;3.60;99.90
3194;DHT22;1608;50.860;13.466;2022-12-01T13:48:55;3.70;99.90
3194;DHT22;1608;50.860;13.466;2022-12-01T13:51:23;3.70;99.90
3194;DHT22;1608;50.860;13.466;2022-12-01T13:54:03;3.80;99.90
3194;DHT22;1608;50.860;13.466;2022-12-01T13:56:36;3.70;99.90
3194;DHT22;1608;50.860;13.466;2022-12-01T13:59:39;3.70;99.90
3194;DHT22;1608;50.860;13.466;2022-12-01T14:02:15;3.70;99.90
3194;DHT22;1608;50.860;13.466;2022-12-01T14:04:43;3.70;99.90
3194;DHT22;1608;50.860;13.466;2022-12-01T14:07:34;3.70;99.90
3194;DHT22;1608;50.860;13.466;2022-12-01T14:12:50;3.50;99.90
3194;DHT22;1608;50.860;13.466;2022-12-01T14:15:34;3.40;99.90
3194;DHT22;1608;50.860;13.466;2022-12-01T14:18:06;3.40;99.90
3194;DHT22;1608;50.860;13.466;2022-12-01T14:20:44;3.20;99.90
3194;DHT22;1608;50.860;13.466;2022-12-01T14:23:15;3.10;99.90
3194;DHT22;1608;50.860;13.466;2022-12-01T14:34:57;3.20;99.90
3194;DHT22;1608;50.860;13.466;2022-12-01T14:37:32;3.20;99.90
3194;DHT22;1608;50.860;13.466;2022-12-01T14:40:05;3.20;99.90
3194;DHT22;1608;50.860;13.466;2022-12-01T14:42:36;3.10;99.90
3194;DHT22;1608;50.860;13.466;2022-12-01T14:45:23;3.10;99.90
3194;DHT22;1608;50.860;13.466;2022-12-01T14:47:57;3.00;99.90
3194;DHT22;1608;50.860;13.466;2022-12-01T14:50:32;3.00;99.90
3194;DHT22;1608;50.860;13.466;2022-12-01T14:53:05;3.00;99.90
3194;DHT22;1608;50.860;13.466;2022-12-01T14:55:36;3.10;99.90
3194;DHT22;1608;50.860;13.466;2022-12-01T14:58:11;3.10;99.90
3194;DHT22;1608;50.860;13.466;2022-12-01T15:00:52;3.10;99.90
3194;DHT22;1608;50.860;13.466;2022-12-01T15:03:21;3.10;99.90
3194;DHT22;1608;50.860;13.466;2022-12-01T15:05:50;3.00;99.90
3194;DHT22;1608;50.860;13.466;2022-12-01T15:08:20;3.00;99.90
3194;DHT22;1608;50.860;13.466;2022-12-01T15:10:50;3.10;99.90
3194;DHT22;1608;50.860;13.466;2022-12-01T15:13:22;3.00;99.90
3194;DHT22;1608;50.860;13.466;2022-12-01T15:15:50;2.90;99.90
3194;DHT22;1608;50.860;13.466;2022-12-01T15:18:22;2.70;99.90
3194;DHT22;1608;50.860;13.466;2022-12-01T15:20:49;2.60;99.90
3194;DHT22;1608;50.860;13.466;2022-12-01T15:23:21;2.70;99.90
3194;DHT22;1608;50.860;13.466;2022-12-01T15:25:48;2.70;99.90
3194;DHT22;1608;50.860;13.466;2022-12-01T15:28:18;2.80;99.90
3194;DHT22;1608;50.860;13.466;2022-12-01T15:30:48;2.90;99.90
3194;DHT22;1608;50.860;13.466;2022-12-01T15:33:19;2.90;99.90
3194;DHT22;1608;50.860;13.466;2022-12-01T15:35:47;2.90;99.90
3194;DHT22;1608;50.860;13.466;2022-12-01T15:38:16;2.90;99.90
3194;DHT22;1608;50.860;13.466;2022-12-01T15:40:44;2.80;99.90
3194;DHT22;1608;50.860;13.466;2022-12-01T15:43:17;2.80;99.90
3194;DHT22;1608;50.860;13.466;2022-12-01T15:45:49;2.70;99.90
3194;DHT22;1608;50.860;13.466;2022-12-01T15:48:23;2.80;99.90
3194;DHT22;1608;50.860;13.466;2022-12-01T15:51:00;2.80;99.90
3194;DHT22;1608;50.860;13.466;2022-12-01T15:53:29;2.90;99.90
3194;DHT22;1608;50.860;13.466;2022-12-01T15:56:00;2.90;99.90
3194;DHT22;1608;50.860;13.466;2022-12-01T15:58:29;2.90;99.90
3194;DHT22;1608;50.860;13.466;2022-12-01T16:01:01;2.80;99.90
3194;DHT22;1608;50.860;13.466;2022-12-01T16:03:28;2.80;99.90
3194;DHT22;1608;50.860;13.466;2022-12-01T16:05:56;2.80;99.90
3194;DHT22;1608;50.860;13.466;2022-12-01T16:08:25;2.80;99.90
3194;DHT22;1608;50.860;13.466;2022-12-01T16:11:09;2.70;99.90
3194;DHT22;1608;50.860;13.466;2022-12-01T16:13:41;2.80;99.90
3194;DHT22;1608;50.860;13.466;2022-12-01T16:16:29;2.80;99.90
3194;DHT22;1608;50.860;13.466;2022-12-01T16:18:58;2.80;99.90
3194;DHT22;1608;50.860;13.466;2022-12-01T16:21:27;2.90;99.90
3194;DHT22;1608;50.860;13.466;2022-12-01T16:23:59;2.90;99.90
3194;DHT22;1608;50.860;13.466;2022-12-01T16:26:26;2.90;99.90
3194;DHT22;1608;50.860;13.466;2022-12-01T16:28:54;2.80;99.90
3194;DHT22;1608;50.860;13.466;2022-12-01T16:31:24;2.70;99.90
3194;DHT22;1608;50.860;13.466;2022-12-01T16:33:59;2.80;99.90
3194;DHT22;1608;50.860;13.466;2022-12-01T16:36:27;2.70;99.90
3194;DHT22;1608;50.860;13.466;2022-12-01T16:38:54;2.70;99.90
3194;DHT22;1608;50.860;13.466;2022-12-01T16:41:27;2.70;99.90